WXM80 ListenWXM80 Stop

You find our weather info also at:

UK Metoffice

WeatherCloud

Weather Underground

Northeastern Weather Network

AWEKAS

Citizen Weather Observer Program (CWOP)

HAMweather, WeatherForYou, PWS Weather


Weather Underground History page Text

Daily Summary for March 5, 2018 Units:  English    Metric   Both
« Previous Day
Next Day »
Daily Weekly Monthly Yearly Custom
  High: Low: Average:
Temperature: 39.8 °F 33.4 °F 36.5 °F
Dew Point: 32.0 °F 26.6 °F 29.3 °F
Humidity: 80 % 71 % 75 %
Wind Speed: 11.6 mph 1.9 mph 6.5 mph
Wind Gust: 21.9 mph - -
Wind:- - SSW
Pressure: 29.81 in 29.74 in -
Precipitation: 0.00 in    
Historical Graphs
 
 
Tabular Data for March 5, 2018
Time Temperature Dew Point Pressure Wind Wind Speed Wind Gust Humidity Rainfall Rate (Hourly)
00:04 34.7 °F 26.6 °F 29.78 in NNW 5.0 mph 11.5 mph 72 % 0.00 in
00:09 34.6 °F 27.2 °F 29.78 in NW 9.1 mph 12.7 mph 74 % 0.00 in
00:14 34.4 °F 27.0 °F 29.77 in North 7.8 mph 13.8 mph 74 % 0.00 in
00:19 34.4 °F 27.3 °F 29.77 in NNE 5.4 mph 9.2 mph 75 % 0.00 in
00:24 34.3 °F 27.5 °F 29.77 in NNW 5.3 mph 8.1 mph 76 % 0.00 in
00:29 34.1 °F 27.3 °F 29.77 in NNW 10.8 mph 16.1 mph 76 % 0.00 in
00:34 34.0 °F 27.5 °F 29.77 in NNW 8.4 mph 12.7 mph 77 % 0.00 in
00:39 33.9 °F 27.4 °F 29.77 in North 9.2 mph 17.3 mph 77 % 0.00 in
00:44 33.8 °F 27.7 °F 29.77 in North 7.8 mph 12.0 mph 78 % 0.00 in
00:49 33.7 °F 27.9 °F 29.77 in NNW 6.8 mph 12.7 mph 79 % 0.00 in
00:54 33.7 °F 27.9 °F 29.77 in NW 6.1 mph 11.5 mph 79 % 0.00 in
00:59 33.6 °F 28.1 °F 29.77 in NNW 7.8 mph 12.7 mph 80 % 0.00 in
01:04 33.5 °F 28.0 °F 29.77 in North 6.7 mph 12.7 mph 80 % 0.00 in
01:10 33.5 °F 28.0 °F 29.77 in North 7.2 mph 12.7 mph 80 % 0.00 in
01:15 33.4 °F 27.9 °F 29.76 in NNW 3.7 mph 11.5 mph 80 % 0.00 in
01:20 33.5 °F 28.0 °F 29.76 in NNW 9.5 mph 12.7 mph 80 % 0.00 in
01:25 33.6 °F 27.8 °F 29.76 in NNE 10.3 mph 16.1 mph 79 % 0.00 in
01:30 33.7 °F 27.6 °F 29.76 in NNE 8.8 mph 15.0 mph 78 % 0.00 in
01:35 33.8 °F 27.4 °F 29.76 in NNW 9.3 mph 16.1 mph 77 % 0.00 in
01:40 33.9 °F 27.1 °F 29.76 in North 6.7 mph 10.0 mph 76 % 0.00 in
01:45 34.0 °F 27.2 °F 29.76 in NNE 11.6 mph 19.0 mph 76 % 0.00 in
01:50 34.0 °F 27.2 °F 29.76 in North 5.7 mph 13.8 mph 76 % 0.00 in
01:55 34.1 °F 27.3 °F 29.75 in NNW 7.1 mph 12.7 mph 76 % 0.00 in
02:00 34.1 °F 27.3 °F 29.75 in NNW 10.5 mph 19.6 mph 76 % 0.00 in
02:05 34.1 °F 27.6 °F 29.75 in North 7.6 mph 11.5 mph 77 % 0.00 in
02:10 34.1 °F 27.6 °F 29.75 in NNE 7.1 mph 11.5 mph 77 % 0.00 in
02:15 34.0 °F 27.5 °F 29.75 in NNE 9.1 mph 12.7 mph 77 % 0.00 in
02:20 34.0 °F 27.5 °F 29.75 in NNW 4.4 mph 13.8 mph 77 % 0.00 in
02:25 34.0 °F 27.5 °F 29.75 in NNW 5.0 mph 13.0 mph 77 % 0.00 in
02:30 33.9 °F 27.4 °F 29.75 in NE 7.6 mph 15.0 mph 77 % 0.00 in
02:36 33.9 °F 27.4 °F 29.75 in North 7.0 mph 13.0 mph 77 % 0.00 in
02:41 33.9 °F 27.8 °F 29.75 in NNE 7.0 mph 13.0 mph 78 % 0.00 in
02:42 33.9 °F 27.4 °F 29.75 in NNE 11.5 mph 16.1 mph 77 % 0.00 in
02:47 33.9 °F 27.4 °F 29.75 in NNE 4.9 mph 9.2 mph 77 % 0.00 in
02:52 33.9 °F 27.8 °F 29.75 in North 5.3 mph 11.5 mph 78 % 0.00 in
02:57 33.9 °F 27.8 °F 29.75 in NNE 6.9 mph 12.7 mph 78 % 0.00 in
03:02 33.9 °F 27.4 °F 29.75 in NNE 8.7 mph 16.1 mph 77 % 0.00 in
03:07 33.9 °F 27.4 °F 29.75 in North 6.9 mph 11.5 mph 77 % 0.00 in
03:12 34.0 °F 27.5 °F 29.74 in NNW 4.6 mph 9.0 mph 77 % 0.00 in
03:17 34.0 °F 27.9 °F 29.74 in WNW 2.0 mph 5.8 mph 78 % 0.00 in
03:22 34.0 °F 27.5 °F 29.75 in NNW 8.4 mph 11.5 mph 77 % 0.00 in
03:27 34.1 °F 27.6 °F 29.74 in North 7.2 mph 12.7 mph 77 % 0.00 in
03:32 34.1 °F 27.6 °F 29.74 in North 3.8 mph 11.5 mph 77 % 0.00 in
03:37 34.1 °F 27.6 °F 29.75 in NNW 7.5 mph 15.0 mph 77 % 0.00 in
03:42 34.1 °F 27.6 °F 29.74 in NNW 7.3 mph 12.7 mph 77 % 0.00 in
03:47 34.1 °F 28.0 °F 29.74 in NNE 7.3 mph 13.0 mph 78 % 0.00 in
03:52 34.1 °F 27.6 °F 29.74 in WNW 5.9 mph 12.0 mph 77 % 0.00 in
03:57 34.1 °F 27.6 °F 29.74 in NW 5.6 mph 11.5 mph 77 % 0.00 in
04:02 34.1 °F 27.6 °F 29.74 in NW 5.4 mph 13.8 mph 77 % 0.00 in
04:08 34.1 °F 27.6 °F 29.74 in NNW 6.7 mph 13.8 mph 77 % 0.00 in
04:13 34.1 °F 27.6 °F 29.74 in NNW 7.5 mph 11.5 mph 77 % 0.00 in
04:18 34.1 °F 27.6 °F 29.74 in North 6.5 mph 16.1 mph 77 % 0.00 in
04:23 34.1 °F 28.0 °F 29.74 in North 7.3 mph 11.5 mph 78 % 0.00 in
04:28 34.1 °F 27.6 °F 29.74 in NNW 5.5 mph 15.0 mph 77 % 0.00 in
04:33 34.1 °F 28.0 °F 29.74 in North 8.2 mph 11.5 mph 78 % 0.00 in
04:38 34.0 °F 27.9 °F 29.74 in NNE 5.5 mph 11.5 mph 78 % 0.00 in
04:43 34.0 °F 27.5 °F 29.74 in North 8.2 mph 11.5 mph 77 % 0.00 in
04:48 33.9 °F 27.4 °F 29.74 in NNE 9.1 mph 17.3 mph 77 % 0.00 in
04:53 33.9 °F 27.4 °F 29.74 in North 9.6 mph 14.0 mph 77 % 0.00 in
04:58 33.9 °F 27.4 °F 29.74 in NNW 7.7 mph 16.1 mph 77 % 0.00 in
05:03 33.9 °F 27.4 °F 29.75 in NNW 10.0 mph 16.1 mph 77 % 0.00 in
05:08 33.9 °F 27.1 °F 29.74 in NNE 11.4 mph 18.4 mph 76 % 0.00 in
05:13 33.9 °F 27.4 °F 29.74 in North 9.5 mph 13.0 mph 77 % 0.00 in
05:19 33.9 °F 27.1 °F 29.74 in North 5.6 mph 15.0 mph 76 % 0.00 in
05:24 33.9 °F 27.1 °F 29.74 in North 6.4 mph 13.8 mph 76 % 0.00 in
05:29 34.0 °F 27.5 °F 29.75 in North 11.2 mph 17.3 mph 77 % 0.00 in
05:34 34.0 °F 27.2 °F 29.75 in NNW 8.4 mph 18.4 mph 76 % 0.00 in
05:39 34.0 °F 27.2 °F 29.75 in NNE 6.0 mph 11.5 mph 76 % 0.00 in
05:44 34.0 °F 27.2 °F 29.75 in North 9.7 mph 13.0 mph 76 % 0.00 in
05:49 34.0 °F 27.2 °F 29.75 in North 10.6 mph 15.0 mph 76 % 0.00 in
05:54 34.0 °F 27.2 °F 29.75 in NNE 6.0 mph 11.5 mph 76 % 0.00 in
05:59 34.0 °F 26.9 °F 29.75 in North 10.7 mph 19.6 mph 75 % 0.00 in
06:04 33.9 °F 27.1 °F 29.75 in North 3.0 mph 11.0 mph 76 % 0.00 in
06:09 33.9 °F 26.8 °F 29.75 in NNW 3.0 mph 3.5 mph 75 % 0.00 in
06:14 33.9 °F 27.1 °F 29.75 in North 5.6 mph 12.0 mph 76 % 0.00 in
06:19 33.9 °F 27.1 °F 29.76 in NNE 5.7 mph 11.5 mph 76 % 0.00 in
06:24 33.9 °F 27.1 °F 29.75 in WNW 4.7 mph 12.0 mph 76 % 0.00 in
06:29 33.9 °F 27.1 °F 29.76 in North 4.4 mph 9.2 mph 76 % 0.00 in
06:35 33.9 °F 27.1 °F 29.76 in NNW 3.8 mph 8.1 mph 76 % 0.00 in
06:40 33.8 °F 27.0 °F 29.76 in NNW 5.4 mph 12.7 mph 76 % 0.00 in
06:45 33.8 °F 27.4 °F 29.76 in NNE 5.2 mph 10.4 mph 77 % 0.00 in
06:50 33.7 °F 26.9 °F 29.75 in NNW 9.4 mph 13.8 mph 76 % 0.00 in
06:55 33.7 °F 26.9 °F 29.76 in North 7.4 mph 12.7 mph 76 % 0.00 in
07:00 33.7 °F 26.6 °F 29.75 in NNE 7.0 mph 12.7 mph 75 % 0.00 in
07:05 33.8 °F 27.0 °F 29.76 in North 5.2 mph 10.4 mph 76 % 0.00 in
07:10 33.8 °F 27.0 °F 29.75 in NNW 11.6 mph 21.9 mph 76 % 0.00 in
07:15 33.8 °F 27.0 °F 29.76 in NW 9.3 mph 16.0 mph 76 % 0.00 in
07:20 33.8 °F 27.0 °F 29.76 in North 5.8 mph 8.1 mph 76 % 0.00 in
07:25 33.9 °F 27.1 °F 29.76 in NNW 8.8 mph 15.0 mph 76 % 0.00 in
07:30 34.0 °F 27.2 °F 29.76 in NNE 8.2 mph 11.5 mph 76 % 0.00 in
07:35 34.1 °F 27.3 °F 29.76 in NNE 7.4 mph 13.8 mph 76 % 0.00 in
07:40 34.2 °F 27.4 °F 29.76 in North 7.2 mph 16.1 mph 76 % 0.00 in
07:45 34.4 °F 27.6 °F 29.76 in NNE 8.1 mph 13.8 mph 76 % 0.00 in
07:50 34.6 °F 27.8 °F 29.75 in NNW 5.4 mph 12.7 mph 76 % 0.00 in
07:55 34.7 °F 27.6 °F 29.75 in North 7.0 mph 11.5 mph 75 % 0.00 in
08:00 35.0 °F 27.9 °F 29.75 in North 4.5 mph 11.5 mph 75 % 0.00 in
08:05 35.1 °F 27.6 °F 29.75 in North 8.8 mph 11.5 mph 74 % 0.00 in
08:11 35.2 °F 27.7 °F 29.75 in North 6.0 mph 17.0 mph 74 % 0.00 in
08:16 35.4 °F 27.9 °F 29.75 in NE 6.9 mph 16.1 mph 74 % 0.00 in
08:20 35.7 °F 28.2 °F 29.75 in North 6.0 mph 14.0 mph 74 % 0.00 in
08:26 35.8 °F 28.3 °F 29.75 in North 8.0 mph 13.0 mph 74 % 0.00 in
08:31 35.9 °F 28.4 °F 29.75 in NNE 8.0 mph 13.0 mph 74 % 0.00 in
08:36 36.1 °F 28.3 °F 29.75 in North 7.0 mph 14.0 mph 73 % 0.00 in
08:41 36.2 °F 28.4 °F 29.76 in North 8.0 mph 12.0 mph 73 % 0.00 in
08:46 36.4 °F 28.6 °F 29.76 in North 8.0 mph 14.0 mph 73 % 0.00 in
08:51 36.5 °F 28.7 °F 29.76 in NNE 7.0 mph 13.0 mph 73 % 0.00 in
08:55 36.5 °F 28.7 °F 29.76 in North 9.0 mph 15.0 mph 73 % 0.00 in
09:01 36.6 °F 28.8 °F 29.75 in North 8.4 mph 11.5 mph 73 % 0.00 in
09:06 36.7 °F 28.9 °F 29.75 in North 9.4 mph 12.7 mph 73 % 0.00 in
09:11 36.8 °F 29.0 °F 29.75 in NNE 7.4 mph 11.5 mph 73 % 0.00 in
09:16 36.9 °F 29.1 °F 29.76 in NNW 8.5 mph 15.0 mph 73 % 0.00 in
09:21 36.9 °F 29.1 °F 29.74 in NNE 9.7 mph 13.8 mph 73 % 0.00 in
09:26 36.9 °F 28.7 °F 29.74 in NNW 8.7 mph 16.1 mph 72 % 0.00 in
09:31 37.0 °F 29.1 °F 29.74 in NNE 9.6 mph 11.5 mph 73 % 0.00 in
09:36 37.1 °F 28.9 °F 29.74 in NNE 8.8 mph 12.0 mph 72 % 0.00 in
09:37 37.1 °F 29.2 °F 29.74 in NNE 7.8 mph 13.0 mph 73 % 0.00 in
09:42 37.3 °F 29.1 °F 29.74 in NNE 9.1 mph 16.1 mph 72 % 0.00 in
09:47 37.3 °F 29.1 °F 29.74 in NNE 5.4 mph 13.0 mph 72 % 0.00 in
09:52 37.3 °F 29.1 °F 29.74 in North 6.8 mph 11.5 mph 72 % 0.00 in
09:57 37.4 °F 29.2 °F 29.74 in North 6.5 mph 11.5 mph 72 % 0.00 in
10:02 37.4 °F 29.2 °F 29.74 in North 9.5 mph 13.8 mph 72 % 0.00 in
10:07 37.5 °F 29.6 °F 29.75 in NNE 9.9 mph 13.8 mph 73 % 0.00 in
10:12 37.5 °F 29.6 °F 29.75 in NE 7.5 mph 13.0 mph 73 % 0.00 in
10:17 37.6 °F 29.7 °F 29.75 in North 7.7 mph 8.1 mph 73 % 0.00 in
10:22 37.7 °F 30.2 °F 29.75 in NNE 8.7 mph 13.8 mph 74 % 0.00 in
10:27 37.8 °F 29.9 °F 29.75 in North 4.8 mph 8.1 mph 73 % 0.00 in
10:32 37.9 °F 30.0 °F 29.75 in NNW 8.1 mph 13.8 mph 73 % 0.00 in
10:37 37.8 °F 29.6 °F 29.75 in NNW 10.3 mph 13.8 mph 72 % 0.00 in
10:42 37.9 °F 30.0 °F 29.75 in North 8.7 mph 15.0 mph 73 % 0.00 in
10:47 37.9 °F 30.0 °F 29.75 in North 8.1 mph 12.7 mph 73 % 0.00 in
10:52 37.9 °F 30.0 °F 29.75 in NNE 10.4 mph 13.8 mph 73 % 0.00 in
10:57 38.0 °F 30.1 °F 29.75 in North 5.6 mph 11.5 mph 73 % 0.00 in
11:02 38.1 °F 30.2 °F 29.75 in NNW 7.4 mph 12.0 mph 73 % 0.00 in
11:08 38.1 °F 30.2 °F 29.75 in North 6.8 mph 11.5 mph 73 % 0.00 in
11:13 38.1 °F 30.2 °F 29.76 in North 4.0 mph 11.5 mph 73 % 0.00 in
11:18 38.0 °F 30.1 °F 29.76 in NNW 9.4 mph 12.7 mph 73 % 0.00 in
11:23 38.0 °F 30.1 °F 29.76 in NNW 5.4 mph 10.4 mph 73 % 0.00 in
11:28 38.0 °F 30.4 °F 29.77 in North 8.0 mph 11.5 mph 74 % 0.00 in
11:33 37.9 °F 30.0 °F 29.76 in NNW 5.5 mph 8.1 mph 73 % 0.00 in
11:38 38.0 °F 30.4 °F 29.77 in NNW 7.4 mph 10.4 mph 74 % 0.00 in
11:43 38.1 °F 30.5 °F 29.77 in NNW 4.7 mph 10.4 mph 74 % 0.00 in
11:48 38.4 °F 31.2 °F 29.77 in NW 5.4 mph 11.5 mph 75 % 0.00 in
11:53 38.7 °F 31.1 °F 29.77 in NNW 5.8 mph 9.2 mph 74 % 0.00 in
11:58 39.1 °F 31.5 °F 29.76 in NW 4.6 mph 8.1 mph 74 % 0.00 in
12:03 39.3 °F 31.7 °F 29.76 in East 4.5 mph 11.5 mph 74 % 0.00 in
12:08 39.6 °F 31.7 °F 29.76 in NW 5.6 mph 9.2 mph 73 % 0.00 in
12:13 39.8 °F 31.8 °F 29.77 in North 5.0 mph 7.0 mph 73 % 0.00 in
12:18 39.8 °F 31.5 °F 29.77 in NNW 5.2 mph 11.5 mph 72 % 0.00 in
12:23 39.5 °F 30.9 °F 29.76 in NW 4.1 mph 9.2 mph 71 % 0.00 in
12:28 39.4 °F 31.1 °F 29.77 in NNW 3.0 mph 6.9 mph 72 % 0.00 in
12:31 39.3 °F 31.0 °F 29.77 in NW 6.7 mph 11.5 mph 72 % 0.00 in
12:36 39.1 °F 30.8 °F 29.76 in North 6.3 mph 13.8 mph 72 % 0.00 in
12:41 38.9 °F 31.0 °F 29.77 in NNW 4.9 mph 8.1 mph 73 % 0.00 in
12:47 38.8 °F 30.9 °F 29.77 in NNW 3.4 mph 13.0 mph 73 % 0.00 in
12:52 38.6 °F 30.7 °F 29.76 in North 7.0 mph 12.7 mph 73 % 0.00 in
12:57 38.5 °F 30.6 °F 29.76 in NW 2.2 mph 8.1 mph 73 % 0.00 in
13:02 38.5 °F 30.9 °F 29.77 in NNW 6.4 mph 12.0 mph 74 % 0.00 in
13:07 38.4 °F 30.8 °F 29.77 in NNW 7.7 mph 15.0 mph 74 % 0.00 in
13:12 38.2 °F 30.3 °F 29.77 in NW 6.2 mph 11.5 mph 73 % 0.00 in
13:17 38.3 °F 30.7 °F 29.77 in WNW 3.7 mph 10.4 mph 74 % 0.00 in
13:22 38.2 °F 30.6 °F 29.77 in WNW 4.9 mph 8.1 mph 74 % 0.00 in
13:27 38.3 °F 30.7 °F 29.77 in NW 6.8 mph 12.7 mph 74 % 0.00 in
13:32 38.3 °F 30.7 °F 29.76 in NW 6.0 mph 9.2 mph 74 % 0.00 in
13:37 38.4 °F 30.8 °F 29.77 in NW 5.5 mph 9.2 mph 74 % 0.00 in
13:42 38.4 °F 30.8 °F 29.77 in NNW 6.6 mph 11.5 mph 74 % 0.00 in
13:47 38.4 °F 31.2 °F 29.76 in WNW 4.7 mph 9.2 mph 75 % 0.00 in
13:52 38.5 °F 30.9 °F 29.76 in NW 3.7 mph 11.5 mph 74 % 0.00 in
13:57 38.6 °F 31.0 °F 29.76 in WNW 3.0 mph 13.8 mph 74 % 0.00 in
14:02 38.7 °F 31.1 °F 29.76 in NW 5.1 mph 11.5 mph 74 % 0.00 in
14:07 38.7 °F 31.1 °F 29.77 in NNW 6.1 mph 8.1 mph 74 % 0.00 in
14:12 38.8 °F 31.2 °F 29.77 in WNW 3.3 mph 5.8 mph 74 % 0.00 in
14:17 38.8 °F 30.9 °F 29.77 in NNW 4.7 mph 10.4 mph 73 % 0.00 in
14:22 38.8 °F 30.9 °F 29.77 in NNW 5.5 mph 6.9 mph 73 % 0.00 in
14:28 38.8 °F 30.9 °F 29.77 in NW 4.4 mph 8.1 mph 73 % 0.00 in
14:33 38.7 °F 30.8 °F 29.77 in NNW 5.1 mph 13.8 mph 73 % 0.00 in
14:38 38.8 °F 31.2 °F 29.77 in NNW 3.3 mph 5.8 mph 74 % 0.00 in
14:43 38.8 °F 31.2 °F 29.77 in NNW 5.2 mph 9.2 mph 74 % 0.00 in
14:48 38.8 °F 31.2 °F 29.77 in NNW 4.0 mph 9.2 mph 74 % 0.00 in
14:53 38.8 °F 31.2 °F 29.77 in NNE 2.4 mph 8.0 mph 74 % 0.00 in
14:58 38.9 °F 31.3 °F 29.77 in North 5.3 mph 11.5 mph 74 % 0.00 in
15:03 38.9 °F 31.6 °F 29.77 in NNW 6.4 mph 9.2 mph 75 % 0.00 in
15:08 38.9 °F 31.3 °F 29.77 in NNW 7.4 mph 11.5 mph 74 % 0.00 in
15:13 39.0 °F 31.4 °F 29.77 in North 4.0 mph 7.0 mph 74 % 0.00 in
15:18 39.1 °F 31.5 °F 29.77 in NNW 5.7 mph 11.5 mph 74 % 0.00 in
15:23 39.1 °F 31.8 °F 29.77 in NNW 4.9 mph 8.1 mph 75 % 0.00 in
15:28 39.2 °F 31.6 °F 29.77 in NNW 7.4 mph 10.4 mph 74 % 0.00 in
15:33 39.2 °F 31.6 °F 29.77 in WNW 2.6 mph 8.1 mph 74 % 0.00 in
15:38 39.2 °F 31.6 °F 29.77 in North 6.7 mph 11.5 mph 74 % 0.00 in
15:43 39.2 °F 31.6 °F 29.77 in North 5.8 mph 11.5 mph 74 % 0.00 in
15:48 39.3 °F 31.7 °F 29.77 in North 5.9 mph 10.0 mph 74 % 0.00 in
15:53 39.2 °F 31.6 °F 29.77 in NNW 4.4 mph 9.2 mph 74 % 0.00 in
15:58 39.2 °F 31.6 °F 29.77 in North 5.8 mph 10.4 mph 74 % 0.00 in
16:04 39.1 °F 31.5 °F 29.77 in NNW 4.7 mph 13.0 mph 74 % 0.00 in
16:09 39.0 °F 31.4 °F 29.77 in NNW 7.2 mph 9.2 mph 74 % 0.00 in
16:14 39.0 °F 31.4 °F 29.77 in North 6.7 mph 11.5 mph 74 % 0.00 in
16:19 39.0 °F 31.1 °F 29.77 in NNE 7.1 mph 14.0 mph 73 % 0.00 in
16:24 39.0 °F 31.7 °F 29.77 in NW 5.3 mph 10.4 mph 75 % 0.00 in
16:29 39.0 °F 31.4 °F 29.77 in North 4.4 mph 10.4 mph 74 % 0.00 in
16:34 39.0 °F 31.7 °F 29.77 in NNW 6.5 mph 9.2 mph 75 % 0.00 in
16:39 38.9 °F 31.3 °F 29.78 in North 8.4 mph 12.7 mph 74 % 0.00 in
16:44 38.9 °F 31.3 °F 29.78 in NNE 6.4 mph 8.1 mph 74 % 0.00 in
16:49 38.9 °F 31.3 °F 29.78 in NW 5.9 mph 10.0 mph 74 % 0.00 in
16:54 38.9 °F 31.6 °F 29.78 in NW 5.0 mph 6.9 mph 75 % 0.00 in
16:59 38.9 °F 32.0 °F 29.78 in NNW 3.6 mph 5.8 mph 76 % 0.00 in
17:05 38.8 °F 31.6 °F 29.78 in North 6.8 mph 12.0 mph 75 % 0.00 in
17:10 38.8 °F 31.6 °F 29.78 in NNW 6.1 mph 10.4 mph 75 % 0.00 in
17:15 38.7 °F 31.1 °F 29.78 in NNW 5.7 mph 11.5 mph 74 % 0.00 in
17:20 38.7 °F 31.1 °F 29.78 in North 5.4 mph 10.4 mph 74 % 0.00 in
17:25 38.7 °F 31.1 °F 29.78 in NNW 5.8 mph 12.7 mph 74 % 0.00 in
17:30 38.7 °F 31.5 °F 29.79 in North 11.0 mph 11.5 mph 75 % 0.00 in
17:35 38.7 °F 31.5 °F 29.79 in North 3.2 mph 11.5 mph 75 % 0.00 in
17:40 38.7 °F 31.5 °F 29.79 in NNE 4.2 mph 12.7 mph 75 % 0.00 in
17:45 38.6 °F 31.4 °F 29.79 in North 4.3 mph 9.2 mph 75 % 0.00 in
17:50 38.6 °F 31.4 °F 29.79 in North 5.1 mph 11.5 mph 75 % 0.00 in
17:55 38.6 °F 31.4 °F 29.79 in North 6.7 mph 13.8 mph 75 % 0.00 in
18:00 38.6 °F 31.0 °F 29.79 in North 5.4 mph 10.4 mph 74 % 0.00 in
18:05 38.6 °F 31.0 °F 29.79 in NNE 5.7 mph 8.1 mph 74 % 0.00 in
18:10 38.6 °F 31.0 °F 29.79 in NNW 4.4 mph 9.2 mph 74 % 0.00 in
18:15 38.5 °F 30.9 °F 29.79 in NW 5.1 mph 11.5 mph 74 % 0.00 in
18:20 38.5 °F 30.9 °F 29.79 in North 7.6 mph 11.5 mph 74 % 0.00 in
18:25 38.4 °F 30.8 °F 29.79 in NW 7.6 mph 9.2 mph 74 % 0.00 in
18:30 38.4 °F 30.8 °F 29.79 in North 8.6 mph 11.5 mph 74 % 0.00 in
18:36 38.4 °F 30.8 °F 29.79 in NNW 5.0 mph 12.0 mph 74 % 0.00 in
18:41 38.3 °F 30.7 °F 29.80 in North 6.2 mph 13.0 mph 74 % 0.00 in
18:46 38.3 °F 30.7 °F 29.80 in NNW 3.1 mph 8.1 mph 74 % 0.00 in
18:51 38.2 °F 30.6 °F 29.80 in NNW 2.6 mph 11.5 mph 74 % 0.00 in
18:56 38.2 °F 30.3 °F 29.80 in NNW 6.1 mph 11.5 mph 73 % 0.00 in
19:01 38.2 °F 30.3 °F 29.80 in North 6.4 mph 15.0 mph 73 % 0.00 in
19:06 38.2 °F 30.6 °F 29.80 in North 3.8 mph 8.1 mph 74 % 0.00 in
19:11 38.1 °F 30.5 °F 29.80 in North 5.6 mph 9.2 mph 74 % 0.00 in
19:16 38.1 °F 30.2 °F 29.80 in North 5.9 mph 11.5 mph 73 % 0.00 in
19:21 38.0 °F 30.1 °F 29.80 in North 6.9 mph 17.3 mph 73 % 0.00 in
19:26 37.9 °F 30.0 °F 29.80 in North 6.0 mph 13.8 mph 73 % 0.00 in
19:31 37.8 °F 30.3 °F 29.80 in NNW 6.9 mph 13.0 mph 74 % 0.00 in
19:36 37.7 °F 30.2 °F 29.80 in NNE 5.5 mph 10.4 mph 74 % 0.00 in
19:41 37.6 °F 30.1 °F 29.80 in North 10.2 mph 12.7 mph 74 % 0.00 in
19:46 37.6 °F 30.1 °F 29.80 in NNE 6.9 mph 11.5 mph 74 % 0.00 in
19:51 37.5 °F 29.6 °F 29.80 in North 7.0 mph 12.7 mph 73 % 0.00 in
19:56 37.5 °F 30.0 °F 29.80 in North 5.9 mph 11.5 mph 74 % 0.00 in
20:01 37.5 °F 30.0 °F 29.81 in NNW 5.9 mph 10.4 mph 74 % 0.00 in
20:06 37.5 °F 30.0 °F 29.80 in NNE 5.0 mph 10.4 mph 74 % 0.00 in
20:11 37.5 °F 30.0 °F 29.80 in North 7.1 mph 11.5 mph 74 % 0.00 in
20:16 37.5 °F 30.0 °F 29.80 in NE 6.9 mph 10.4 mph 74 % 0.00 in
20:22 37.5 °F 30.3 °F 29.80 in NW 6.6 mph 9.2 mph 75 % 0.00 in
20:27 37.5 °F 30.0 °F 29.80 in NNW 7.1 mph 12.7 mph 74 % 0.00 in
20:32 37.5 °F 30.0 °F 29.80 in North 6.5 mph 12.7 mph 74 % 0.00 in
20:37 37.5 °F 30.0 °F 29.80 in North 7.3 mph 10.4 mph 74 % 0.00 in
20:42 37.5 °F 30.0 °F 29.80 in North 7.4 mph 14.0 mph 74 % 0.00 in
20:47 37.5 °F 30.0 °F 29.80 in North 6.5 mph 15.0 mph 74 % 0.00 in
20:52 37.5 °F 29.6 °F 29.80 in NNE 6.8 mph 13.8 mph 73 % 0.00 in
20:57 37.4 °F 29.5 °F 29.81 in North 4.7 mph 8.0 mph 73 % 0.00 in
21:02 37.4 °F 29.9 °F 29.80 in NE 7.2 mph 14.0 mph 74 % 0.00 in
21:07 37.3 °F 29.8 °F 29.80 in North 7.5 mph 11.5 mph 74 % 0.00 in
21:12 37.2 °F 29.7 °F 29.80 in NNE 6.7 mph 11.5 mph 74 % 0.00 in
21:17 37.1 °F 29.6 °F 29.80 in North 7.0 mph 10.4 mph 74 % 0.00 in
21:22 37.0 °F 29.5 °F 29.79 in NNE 9.0 mph 11.5 mph 74 % 0.00 in
21:27 37.0 °F 29.5 °F 29.80 in NNE 7.9 mph 12.0 mph 74 % 0.00 in
21:32 36.9 °F 29.4 °F 29.80 in NNE 6.4 mph 10.0 mph 74 % 0.00 in
21:37 36.9 °F 29.7 °F 29.80 in NNE 6.6 mph 11.5 mph 75 % 0.00 in
21:42 36.8 °F 29.6 °F 29.80 in NNE 7.1 mph 13.8 mph 75 % 0.00 in
21:47 36.8 °F 29.6 °F 29.80 in NNE 5.0 mph 11.5 mph 75 % 0.00 in
21:53 36.7 °F 29.5 °F 29.79 in NNE 7.3 mph 10.4 mph 75 % 0.00 in
21:58 36.7 °F 29.8 °F 29.79 in NNE 6.9 mph 11.5 mph 76 % 0.00 in
22:03 36.7 °F 29.8 °F 29.79 in NNE 9.0 mph 12.7 mph 76 % 0.00 in
22:08 36.6 °F 29.7 °F 29.80 in NNE 6.9 mph 9.2 mph 76 % 0.00 in
22:13 36.6 °F 29.7 °F 29.80 in NNE 6.0 mph 9.2 mph 76 % 0.00 in
22:18 36.6 °F 29.7 °F 29.79 in North 4.9 mph 8.1 mph 76 % 0.00 in
22:23 36.5 °F 29.7 °F 29.79 in NNE 6.4 mph 10.4 mph 76 % 0.00 in
22:28 36.5 °F 29.7 °F 29.80 in NNE 5.8 mph 8.1 mph 76 % 0.00 in
22:33 36.4 °F 29.6 °F 29.80 in North 4.2 mph 6.9 mph 76 % 0.00 in
22:38 36.4 °F 29.6 °F 29.79 in NNE 3.9 mph 7.0 mph 76 % 0.00 in
22:43 36.3 °F 29.8 °F 29.80 in NNE 4.6 mph 6.9 mph 77 % 0.00 in
22:48 36.2 °F 29.7 °F 29.80 in NNE 3.7 mph 5.8 mph 77 % 0.00 in
22:53 36.1 °F 29.6 °F 29.80 in NNE 3.9 mph 6.9 mph 77 % 0.00 in
22:58 36.0 °F 29.5 °F 29.80 in NNE 3.0 mph 6.9 mph 77 % 0.00 in
23:03 35.9 °F 29.4 °F 29.80 in NNE 3.1 mph 3.5 mph 77 % 0.00 in
23:08 35.9 °F 29.4 °F 29.79 in NNE 2.5 mph 4.6 mph 77 % 0.00 in
23:13 35.8 °F 29.3 °F 29.79 in NNE 1.9 mph 6.0 mph 77 % 0.00 in
23:18 35.7 °F 29.5 °F 29.79 in NNE 3.2 mph 6.9 mph 78 % 0.00 in
23:24 35.6 °F 29.1 °F 29.79 in North 4.1 mph 9.2 mph 77 % 0.00 in
23:29 35.6 °F 29.1 °F 29.79 in NNE 5.3 mph 8.1 mph 77 % 0.00 in
23:34 35.5 °F 29.0 °F 29.79 in NNE 5.8 mph 10.4 mph 77 % 0.00 in
23:39 35.5 °F 29.0 °F 29.79 in North 5.2 mph 6.9 mph 77 % 0.00 in
23:44 35.4 °F 29.2 °F 29.79 in NNE 4.2 mph 5.8 mph 78 % 0.00 in
23:49 35.3 °F 28.8 °F 29.78 in NNE 6.3 mph 10.4 mph 77 % 0.00 in
23:54 35.3 °F 28.8 °F 29.78 in North 3.8 mph 6.9 mph 77 % 0.00 in
23:59 35.2 °F 29.0 °F 29.78 in NNE 4.3 mph 6.9 mph 78 % 0.00 in
Crab Meadow Weather
Compliments of Weather Underground - 3 mb

Script developed by  Jim McMurry - jmcmurry@mwt.net Adapted for the template by  Wim van der Kuil - Leuven-Template.eu

Recycling: Americans threw away 38 billion plastic water bottles in 2006. A million and a half barrels of oil - enough to fuel 100,000 cars for a year - were used to produce the bottles.